Time;durP1;ratioP1;P1;durP2;ratioP2;P2;SDS_P1;SDS_P2;PMS_P1;PMS_P2;Temp;Humidity;BMP_temperature;BMP_pressure;BME280_temperature;BME280_humidity;BME280_pressure;Samples;Min_cycle;Max_cycle;Signal;HPM_P1;HPM_P2
2021/01/21 00:02:15;;;;;;;5.20;1.80;;;;;;;6.49;71.00;99413.84;4917224;29;20054;-78
2021/01/21 00:04:40;;;;;;;3.90;1.50;;;;;;;6.55;70.30;99413.22;4920544;29;20032;-77
2021/01/21 00:07:06;;;;;;;3.60;1.52;;;;;;;6.53;70.72;99419.56;4927883;28;20115;-76
2021/01/21 00:09:31;;;;;;;4.95;1.88;;;;;;;6.52;70.62;99412.75;4924039;29;20035;-77
2021/01/21 00:11:58;;;;;;;6.05;1.80;;;;;;;6.60;69.99;99418.81;4931896;29;20032;-77
2021/01/21 00:14:24;;;;;;;4.38;1.70;;;;;;;6.68;69.54;99423.25;4930632;29;20067;-77
2021/01/21 00:16:49;;;;;;;3.85;1.60;;;;;;;6.60;70.23;99410.19;4897686;29;20079;-76
2021/01/21 00:19:15;;;;;;;4.13;1.60;;;;;;;6.63;69.64;99408.09;4924200;29;20050;-75
2021/01/21 00:21:41;;;;;;;6.53;1.80;;;;;;;6.54;69.90;99400.38;4932984;29;20510;-77
2021/01/21 00:24:07;;;;;;;5.63;1.67;;;;;;;6.50;70.99;99406.84;4933713;29;20498;-77
2021/01/21 00:26:33;;;;;;;3.95;1.50;;;;;;;6.39;71.33;99400.13;4914821;29;20039;-78
2021/01/21 00:29:00;;;;;;;5.10;1.60;;;;;;;6.43;71.32;99409.25;4908283;29;20048;-76
2021/01/21 00:31:25;;;;;;;3.72;1.88;;;;;;;6.35;71.46;99402.22;4897945;29;20042;-77
2021/01/21 00:33:51;;;;;;;4.25;1.50;;;;;;;6.39;71.23;99406.13;4913398;29;20048;-77
2021/01/21 00:36:16;;;;;;;9.25;2.00;;;;;;;6.37;71.79;99395.06;4915447;29;20040;-78
2021/01/21 00:38:42;;;;;;;2.28;1.38;;;;;;;6.35;71.71;99394.41;4915574;29;20036;-78
2021/01/21 00:41:08;;;;;;;3.00;1.70;;;;;;;6.31;71.61;99390.47;4911886;29;20291;-77
2021/01/21 00:43:33;;;;;;;4.13;1.73;;;;;;;6.26;72.12;99381.47;4911909;29;20090;-79
2021/01/21 00:45:59;;;;;;;5.55;2.00;;;;;;;6.33;71.88;99390.28;4900491;29;20051;-77
2021/01/21 00:48:24;;;;;;;7.78;1.90;;;;;;;6.29;72.42;99382.00;4900823;29;20053;-78
2021/01/21 00:50:50;;;;;;;6.72;1.40;;;;;;;6.34;72.36;99373.72;4925864;29;20039;-79
2021/01/21 00:53:16;;;;;;;6.00;1.80;;;;;;;6.36;72.09;99383.00;4917037;29;20027;-76
2021/01/21 00:55:42;;;;;;;2.55;1.38;;;;;;;6.48;71.94;99369.72;4918680;29;20135;-77
2021/01/21 00:58:08;;;;;;;6.80;2.35;;;;;;;6.56;71.54;99365.38;4925077;29;21107;-76
2021/01/21 01:00:35;;;;;;;4.75;1.67;;;;;;;6.53;71.85;99364.88;4897505;29;20776;-77
2021/01/21 01:03:11;;;;;;;3.88;1.67;;;;;;;6.56;71.84;99367.19;4922091;29;20692;-78
2021/01/21 01:05:40;;;;;;;4.70;1.83;;;;;;;6.54;71.52;99366.53;4915595;29;20035;-78
2021/01/21 01:08:06;;;;;;;6.00;1.67;;;;;;;6.47;72.07;99355.06;4891077;29;20462;-76
2021/01/21 01:10:32;;;;;;;6.00;1.67;;;;;;;6.51;72.08;99353.78;4896826;29;20046;-77
2021/01/21 01:13:02;;;;;;;2.72;1.30;;;;;;;6.43;72.28;99349.34;4911679;29;20517;-77
2021/01/21 01:15:32;;;;;;;6.22;1.80;;;;;;;6.41;72.14;99349.50;4912042;29;20040;-77
2021/01/21 01:17:59;;;;;;;4.70;1.73;;;;;;;6.47;71.84;99340.25;4914072;29;20066;-76
2021/01/21 01:20:25;;;;;;;6.60;1.88;;;;;;;6.38;71.67;99341.97;4922064;29;20028;-77
2021/01/21 01:22:52;;;;;;;5.28;1.73;;;;;;;6.46;71.55;99335.19;4917823;29;20044;-79
2021/01/21 01:25:21;;;;;;;7.10;1.80;;;;;;;6.40;71.73;99326.22;4900876;29;20047;-75
2021/01/21 01:27:46;;;;;;;1.77;1.20;;;;;;;6.45;71.80;99323.16;4919391;29;20043;-77
2021/01/21 01:30:13;;;;;;;7.00;1.60;;;;;;;6.36;71.59;99311.88;4943303;29;20035;-77
2021/01/21 01:32:39;;;;;;;6.82;1.50;;;;;;;6.27;72.23;99307.56;4934675;29;20433;-77
2021/01/21 01:35:06;;;;;;;4.65;1.70;;;;;;;6.37;72.00;99306.50;4940447;29;20040;-77
2021/01/21 01:37:32;;;;;;;4.07;1.60;;;;;;;6.28;72.07;99307.44;4922434;29;20031;-75
2021/01/21 01:40:04;;;;;;;6.47;1.80;;;;;;;6.33;71.70;99288.72;4931904;29;20071;-76
2021/01/21 01:42:36;;;;;;;;;;;;;;;6.35;72.07;99299.84;4918209;29;20449;-76
2021/01/21 01:45:05;;;;;;;5.22;1.75;;;;;;;6.19;72.73;99303.94;4922340;29;20373;-75
2021/01/21 01:47:33;;;;;;;5.78;2.03;;;;;;;6.16;73.11;99309.47;4919435;29;20024;-79
2021/01/21 01:49:59;;;;;;;4.95;1.50;;;;;;;6.03;73.48;99286.44;4929317;29;20032;-77
2021/01/21 01:52:27;;;;;;;3.13;1.60;;;;;;;5.99;73.72;99294.69;4907495;29;20127;-78
2021/01/21 01:55:13;;;;;;;4.88;1.90;;;;;;;5.87;74.11;99283.69;4916167;29;20464;-76
2021/01/21 01:57:50;;;;;;;5.57;1.77;;;;;;;5.88;74.49;99276.69;4903926;29;20199;-78
2021/01/21 02:00:19;;;;;;;5.93;1.50;;;;;;;5.81;74.41;99269.50;4894373;29;20040;-75
2021/01/21 02:02:55;;;;;;;2.63;1.30;;;;;;;5.80;74.57;99267.06;4921153;29;20048;-77
2021/01/21 02:05:20;;;;;;;3.50;1.60;;;;;;;5.74;74.57;99255.47;4925945;29;20040;-76
2021/01/21 02:07:57;;;;;;;4.47;1.60;;;;;;;5.78;74.39;99256.81;4894844;29;20766;-78
2021/01/21 02:10:23;;;;;;;6.97;1.90;;;;;;;5.87;74.03;99262.88;4913401;29;20115;-76
2021/01/21 02:13:29;;;;;;;4.25;1.60;;;;;;;5.87;74.40;99262.88;4937683;29;20043;-79
2021/01/21 02:16:17;;;;;;;2.90;1.40;;;;;;;5.89;74.71;99257.53;4903374;29;20071;-77
2021/01/21 02:19:05;;;;;;;3.63;1.77;;;;;;;5.79;74.62;99239.41;4931606;29;20402;-76
2021/01/21 02:21:55;;;;;;;3.30;1.65;;;;;;;5.88;74.30;99238.50;4911310;29;20097;-75
2021/01/21 02:24:21;;;;;;;3.95;1.52;;;;;;;5.89;74.52;99240.13;4916459;29;20055;-77
2021/01/21 02:26:56;;;;;;;3.13;1.83;;;;;;;5.73;74.86;99227.03;4916243;29;20035;-78
2021/01/21 02:29:32;;;;;;;4.53;1.83;;;;;;;5.82;74.61;99231.28;4924157;29;20119;-77
2021/01/21 02:31:57;;;;;;;8.07;1.90;;;;;;;5.90;74.97;99226.16;4914253;29;20040;-77
2021/01/21 02:34:51;;;;;;;5.30;1.70;;;;;;;5.80;74.81;99221.06;4915404;29;20073;-78
2021/01/21 02:37:28;;;;;;;6.78;1.75;;;;;;;5.82;74.98;99216.50;4932870;29;20489;-77
2021/01/21 02:40:01;;;;;;;6.93;1.77;;;;;;;5.71;75.34;99201.16;4896110;29;20046;-78
2021/01/21 02:42:47;;;;;;;2.83;1.67;;;;;;;5.80;75.27;99207.22;4901079;29;20050;-76
2021/01/21 02:45:18;;;;;;;6.22;2.05;;;;;;;5.79;75.61;99193.38;4907177;29;20039;-76
2021/01/21 02:47:48;;;;;;;4.63;1.73;;;;;;;5.77;75.39;99191.91;4915463;29;20035;-75
2021/01/21 02:50:14;;;;;;;2.97;1.70;;;;;;;5.72;75.79;99183.75;4918442;29;20040;-78
2021/01/21 02:52:46;;;;;;;4.85;1.60;;;;;;;5.76;75.83;99188.47;4903795;29;20078;-77
2021/01/21 02:55:23;;;;;;;3.67;1.55;;;;;;;5.70;75.92;99172.69;4902579;29;20027;-78
2021/01/21 02:58:21;;;;;;;4.63;1.60;;;;;;;5.72;75.32;99173.34;4931614;29;20407;-77
2021/01/21 03:00:50;;;;;;;2.47;1.52;;;;;;;5.73;75.92;99152.38;4944939;29;20071;-77
2021/01/21 03:03:20;;;;;;;4.55;1.75;;;;;;;5.78;75.49;99150.16;4919590;29;20059;-78
2021/01/21 03:05:54;;;;;;;4.70;1.48;;;;;;;5.81;75.81;99147.22;4905634;29;20040;-77
2021/01/21 03:08:20;;;;;;;3.85;1.65;;;;;;;5.88;75.23;99133.56;4900231;29;20120;-77
2021/01/21 03:10:48;;;;;;;4.90;1.60;;;;;;;5.83;75.08;99111.44;4916366;29;20126;-76
2021/01/21 03:13:17;;;;;;;3.33;1.70;;;;;;;5.85;74.77;99103.50;4911286;29;20028;-78
2021/01/21 03:15:47;;;;;;;4.13;1.33;;;;;;;5.95;74.72;99106.81;4917370;29;20036;-77
2021/01/21 03:18:16;;;;;;;4.55;1.65;;;;;;;5.97;74.29;99101.44;4903022;29;20064;-78
2021/01/21 03:20:41;;;;;;;5.20;1.80;;;;;;;5.98;74.34;99092.69;4911251;29;20067;-78
2021/01/21 03:23:11;;;;;;;3.05;1.30;;;;;;;6.03;74.32;99085.22;4934760;29;20032;-77
2021/01/21 03:25:43;;;;;;;3.55;1.60;;;;;;;6.06;73.82;99074.47;4919674;29;20067;-78
2021/01/21 03:28:13;;;;;;;4.57;1.50;;;;;;;6.10;73.35;99075.78;4902320;29;20032;-77
2021/01/21 03:30:39;;;;;;;6.00;2.00;;;;;;;6.16;73.59;99079.53;4910965;29;20045;-77
2021/01/21 03:33:05;;;;;;;3.90;1.40;;;;;;;6.19;74.04;99087.84;4929690;29;20074;-77
2021/01/21 03:35:41;;;;;;;4.53;1.63;;;;;;;6.17;73.28;99073.38;4931254;29;20063;-78
2021/01/21 03:38:06;;;;;;;2.40;1.35;;;;;;;6.22;72.92;99069.31;4919031;29;20043;-75
2021/01/21 03:40:40;;;;;;;3.00;1.60;;;;;;;6.30;73.23;99073.72;4920474;29;20039;-76
2021/01/21 03:43:06;;;;;;;3.75;1.60;;;;;;;6.36;72.45;99057.47;4933642;29;20040;-76
2021/01/21 03:45:51;;;;;;;6.30;2.15;;;;;;;6.33;72.42;99031.75;4902371;29;20451;-76
2021/01/21 03:48:17;;;;;;;5.72;1.60;;;;;;;6.34;72.72;99027.34;4900964;29;20108;-76
2021/01/21 03:51:03;;;;;;;2.92;1.40;;;;;;;6.43;72.54;99036.81;4932350;29;20055;-77
2021/01/21 03:53:29;;;;;;;5.10;1.75;;;;;;;6.34;72.59;99028.16;4914540;29;20474;-75
2021/01/21 03:56:11;;;;;;;4.57;1.52;;;;;;;6.32;73.03;99022.31;4931082;29;20395;-77
2021/01/21 03:58:36;;;;;;;6.45;1.63;;;;;;;6.32;72.73;99011.06;4933176;29;20537;-76
2021/01/21 04:01:08;;;;;;;2.50;1.45;;;;;;;6.41;72.31;99029.16;4915495;29;20040;-77
2021/01/21 04:03:34;;;;;;;3.35;1.42;;;;;;;6.28;72.59;98994.16;4913385;29;20047;-77
2021/01/21 04:06:03;;;;;;;7.88;1.63;;;;;;;6.32;73.08;99013.69;4915309;29;20039;-79
2021/01/21 04:08:28;;;;;;;8.15;1.50;;;;;;;6.23;73.46;98995.47;4932901;29;20078;-75
2021/01/21 04:11:13;;;;;;;6.30;1.55;;;;;;;6.33;72.52;99004.88;4911874;29;20036;-77
2021/01/21 04:13:45;;;;;;;3.63;1.42;;;;;;;6.36;72.33;99002.75;4916166;29;20047;-76
2021/01/21 04:16:16;;;;;;;4.00;1.38;;;;;;;6.29;72.41;98990.56;4917993;29;20038;-76
2021/01/21 04:18:41;;;;;;;4.68;1.42;;;;;;;6.21;72.76;98986.97;4911776;29;20035;-75
2021/01/21 04:21:08;;;;;;;5.88;1.73;;;;;;;6.21;73.03;98996.56;4905555;29;20186;-77
2021/01/21 04:23:35;;;;;;;3.42;1.50;;;;;;;6.07;73.21;98982.41;4915772;29;20573;-76
2021/01/21 04:26:03;;;;;;;6.43;1.60;;;;;;;6.07;73.49;98992.81;4900366;29;20036;-75
2021/01/21 04:28:33;;;;;;;4.82;1.52;;;;;;;6.09;72.70;98969.25;4923513;29;20019;-77
2021/01/21 04:30:59;;;;;;;3.13;1.80;;;;;;;6.19;73.05;98981.09;4936793;29;20751;-79
2021/01/21 04:33:24;;;;;;;2.80;1.15;;;;;;;6.11;72.75;98972.50;4903368;29;20121;-77
2021/01/21 04:35:51;;;;;;;5.07;1.30;;;;;;;6.07;73.31;98964.19;4899345;29;20063;-77
2021/01/21 04:38:16;;;;;;;3.78;1.30;;;;;;;6.04;73.00;98961.91;4933436;29;20036;-77
2021/01/21 04:40:57;;;;;;;5.72;1.73;;;;;;;6.06;73.06;98957.34;4913554;29;20471;-76
2021/01/21 04:43:41;;;;;;;7.07;1.27;;;;;;;5.99;73.55;98951.16;4936574;29;20047;-76
2021/01/21 04:46:16;;;;;;;4.72;1.80;;;;;;;5.99;73.37;98945.94;4920501;29;20035;-76
2021/01/21 04:48:50;;;;;;;7.35;1.48;;;;;;;6.01;73.36;98949.22;4935424;29;20074;-77
2021/01/21 04:51:17;;;;;;;4.15;1.35;;;;;;;5.94;73.35;98940.41;4910945;29;20067;-75
2021/01/21 04:53:58;;;;;;;5.38;1.52;;;;;;;5.98;73.42;98946.94;4899927;29;20102;-76
2021/01/21 04:56:48;;;;;;;3.90;1.13;;;;;;;5.84;74.06;98917.94;4929929;29;20028;-77
2021/01/21 04:59:18;;;;;;;2.88;1.10;;;;;;;5.78;74.23;98926.38;4927607;29;20083;-75
2021/01/21 05:01:48;;;;;;;4.68;1.52;;;;;;;5.86;73.76;98922.97;4930923;29;20044;-77
2021/01/21 05:04:17;;;;;;;4.38;1.38;;;;;;;5.81;74.20;98902.63;4917584;29;20032;-76
2021/01/21 05:06:50;;;;;;;3.70;1.15;;;;;;;5.87;74.15;98903.78;4905418;29;20047;-76
2021/01/21 05:09:18;;;;;;;3.13;1.38;;;;;;;5.90;73.73;98892.25;4925923;29;20030;-77
2021/01/21 05:11:44;;;;;;;4.18;1.50;;;;;;;5.93;73.80;98908.34;4934474;29;20055;-77
2021/01/21 05:14:29;;;;;;;5.50;1.38;;;;;;;5.88;73.91;98878.56;4932097;29;20038;-75
2021/01/21 05:17:04;;;;;;;2.75;1.40;;;;;;;6.01;72.91;98897.97;4929879;29;20075;-77
2021/01/21 05:19:52;;;;;;;3.08;1.25;;;;;;;6.13;73.06;98905.47;4933430;29;20047;-75
2021/01/21 05:22:37;;;;;;;4.60;1.38;;;;;;;6.10;72.78;98880.56;4931189;29;20495;-76
2021/01/21 05:25:21;;;;;;;4.32;1.45;;;;;;;6.10;72.78;98898.78;4931189;29;20044;-75
2021/01/21 05:27:59;;;;;;;8.25;1.40;;;;;;;6.23;72.07;98867.03;4920601;29;20023;-74
2021/01/21 05:31:02;;;;;;;10.55;1.58;;;;;;;6.37;71.20;98866.38;4927213;29;20059;-75
2021/01/21 05:33:35;;;;;;;2.65;1.20;;;;;;;6.32;71.47;98844.44;4905804;29;20047;-76
2021/01/21 05:36:27;;;;;;;3.55;1.25;;;;;;;6.26;71.93;98865.94;4923848;29;20130;-76
2021/01/21 05:39:12;;;;;;;2.00;1.00;;;;;;;6.40;71.33;98844.41;4907062;29;20067;-77
2021/01/21 05:41:56;;;;;;;2.90;1.17;;;;;;;6.57;70.65;98834.75;4925460;29;20165;-77
2021/01/21 05:44:27;;;;;;;5.50;1.50;;;;;;;6.65;69.98;98833.91;4925801;29;20035;-76
2021/01/21 05:47:15;;;;;;;4.00;1.10;;;;;;;6.85;69.11;98823.91;4925967;29;20031;-79
2021/01/21 05:49:41;;;;;;;2.88;1.00;;;;;;;6.85;69.25;98829.13;4939763;29;20098;-76
2021/01/21 05:52:12;;;;;;;2.58;1.10;;;;;;;6.94;68.48;98818.50;4940521;29;20048;-76
2021/01/21 05:54:40;;;;;;;5.55;1.30;;;;;;;7.01;68.28;98816.03;4903376;29;20035;-76
2021/01/21 05:57:09;;;;;;;2.92;1.10;;;;;;;7.19;67.21;98816.56;4910206;29;20376;-76
2021/01/21 05:59:35;;;;;;;3.72;1.20;;;;;;;7.25;67.40;98815.06;4925480;29;20059;-77
2021/01/21 06:02:16;;;;;;;2.13;1.20;;;;;;;7.20;67.38;98818.19;4933287;29;20043;-77
2021/01/21 06:04:49;;;;;;;3.40;1.35;;;;;;;7.26;66.96;98803.66;4932229;29;20043;-76
2021/01/21 06:07:21;;;;;;;1.77;1.00;;;;;;;7.37;66.82;98805.88;4912715;29;20087;-76
2021/01/21 06:09:46;;;;;;;2.90;1.15;;;;;;;7.39;66.45;98798.69;4900544;29;20036;-76
2021/01/21 06:12:12;;;;;;;3.50;1.10;;;;;;;7.44;66.55;98799.97;4942701;28;20031;-75
2021/01/21 06:14:38;;;;;;;4.15;1.17;;;;;;;7.46;66.54;98792.78;4927722;29;20072;-77
2021/01/21 06:17:03;;;;;;;1.80;1.20;;;;;;;7.52;66.35;98794.69;4929229;29;20126;-78
2021/01/21 06:19:37;;;;;;;2.95;1.20;;;;;;;7.58;66.30;98794.81;4931680;29;20044;-76
2021/01/21 06:22:10;;;;;;;2.97;1.05;;;;;;;7.69;65.56;98790.97;4918946;29;20039;-78
2021/01/21 06:24:51;;;;;;;2.38;1.20;;;;;;;7.74;65.29;98796.50;4931764;29;20039;-79
2021/01/21 06:27:18;;;;;;;4.28;1.20;;;;;;;7.75;65.35;98787.66;4899180;29;20407;-79
2021/01/21 06:29:49;;;;;;;5.28;1.13;;;;;;;7.73;65.07;98767.94;4904816;29;20734;-77
2021/01/21 06:32:20;;;;;;;5.00;1.50;;;;;;;7.81;64.85;98778.31;4899477;29;20040;-77
2021/01/21 06:34:47;;;;;;;3.63;1.35;;;;;;;7.79;64.92;98775.06;4896109;29;20036;-78
2021/01/21 06:37:18;;;;;;;4.53;1.25;;;;;;;7.83;64.82;98780.75;4899825;29;20040;-79
2021/01/21 06:40:00;;;;;;;7.00;1.30;;;;;;;7.81;65.63;98778.31;4924490;29;20035;-78
2021/01/21 06:42:32;;;;;;;3.35;1.10;;;;;;;7.78;65.19;98758.59;4917908;29;20036;-78
2021/01/21 06:44:59;;;;;;;3.67;1.20;;;;;;;7.87;64.40;98766.34;4918818;29;20110;-79
2021/01/21 06:47:24;;;;;;;2.80;1.30;;;;;;;7.88;65.00;98762.75;4901681;29;20390;-78
2021/01/21 06:49:58;;;;;;;2.30;0.85;;;;;;;7.89;64.42;98756.53;4916680;29;20099;-78
2021/01/21 06:52:31;;;;;;;4.75;1.23;;;;;;;7.99;64.28;98770.97;4917591;29;20048;-80
2021/01/21 06:55:01;;;;;;;3.00;1.23;;;;;;;8.03;63.93;98770.63;4917317;29;20044;-77
2021/01/21 06:57:34;;;;;;;5.13;1.20;;;;;;;8.12;64.16;98780.81;4911030;29;20059;-78
2021/01/21 07:00:06;;;;;;;3.08;1.10;;;;;;;8.10;64.28;98768.91;4902131;29;20430;-77
2021/01/21 07:02:48;;;;;;;3.42;1.35;;;;;;;8.11;64.10;98755.66;4902052;29;20040;-77
2021/01/21 07:05:21;;;;;;;3.17;1.20;;;;;;;8.12;64.04;98772.97;4905315;29;20023;-77
2021/01/21 07:07:53;;;;;;;4.05;1.00;;;;;;;8.23;63.48;98778.72;4914868;29;20051;-78
2021/01/21 07:10:23;;;;;;;2.63;1.10;;;;;;;8.16;63.69;98762.97;4911074;29;20178;-77
2021/01/21 07:12:49;;;;;;;3.13;1.00;;;;;;;8.22;63.27;98777.13;4899999;29;20039;-77
2021/01/21 07:15:16;;;;;;;1.65;0.90;;;;;;;8.12;63.76;98774.78;4910727;29;20046;-77
2021/01/21 07:17:42;;;;;;;1.60;1.20;;;;;;;7.99;64.21;98773.59;4902388;29;20044;-77
2021/01/21 07:20:08;;;;;;;3.38;1.23;;;;;;;7.88;64.70;98762.75;4903585;29;20516;-78
2021/01/21 07:22:33;;;;;;;8.23;1.67;;;;;;;7.92;64.65;98770.06;4931792;29;20059;-77
2021/01/21 07:25:01;;;;;;;3.78;1.20;;;;;;;7.96;64.47;98778.34;4912881;29;20123;-77
2021/01/21 07:27:29;;;;;;;2.28;1.17;;;;;;;8.02;64.68;98775.00;4914649;29;20036;-78
2021/01/21 07:30:25;;;;;;;3.17;0.70;;;;;;;8.06;64.48;98775.47;4908856;29;20034;-77
2021/01/21 07:33:20;;;;;;;4.65;1.10;;;;;;;8.18;64.37;98774.84;4936887;29;20035;-77
2021/01/21 07:35:45;;;;;;;1.98;1.10;;;;;;;8.24;63.74;98775.16;4917376;29;20493;-79
2021/01/21 07:38:11;;;;;;;3.50;1.10;;;;;;;8.28;64.27;98792.88;4921045;29;20039;-79
2021/01/21 07:40:41;;;;;;;1.60;1.00;;;;;;;8.30;64.30;98801.34;4936595;29;20508;-79
2021/01/21 07:43:07;;;;;;;5.35;1.00;;;;;;;8.23;64.67;98813.50;4934636;29;20040;-78
2021/01/21 07:45:33;;;;;;;2.60;1.20;;;;;;;8.24;64.78;98814.31;4923370;29;20262;-77
2021/01/21 07:48:19;;;;;;;3.75;1.23;;;;;;;8.28;64.33;98832.06;4931851;29;20036;-78
2021/01/21 07:50:45;;;;;;;4.97;1.27;;;;;;;8.34;64.86;98840.97;4912829;29;20051;-79
2021/01/21 07:53:25;;;;;;;2.55;1.15;;;;;;;8.39;64.45;98875.22;4923156;29;20793;-77
2021/01/21 07:55:53;;;;;;;2.65;0.95;;;;;;;8.47;66.28;98955.38;4932496;29;20035;-78
2021/01/21 07:58:39;;;;;;;2.88;0.95;;;;;;;8.35;68.92;98986.28;4918284;29;20497;-76
2021/01/21 08:01:10;;;;;;;0.85;0.30;;;;;;;7.65;71.18;99029.78;4906092;29;20047;-79
2021/01/21 08:03:37;;;;;;;1.13;0.40;;;;;;;7.12;73.37;99039.88;4919371;29;20035;-79
2021/01/21 08:06:03;;;;;;;2.25;0.20;;;;;;;6.76;74.72;99044.63;4897624;29;20180;-77
2021/01/21 08:08:29;;;;;;;2.65;0.30;;;;;;;6.34;77.59;99022.16;4914986;29;20150;-79
2021/01/21 08:11:00;;;;;;;1.25;0.50;;;;;;;6.19;76.55;99027.16;4919971;29;20046;-79
2021/01/21 08:13:26;;;;;;;0.70;0.35;;;;;;;6.13;76.36;99025.22;4939710;29;20565;-78
2021/01/21 08:15:52;;;;;;;1.45;0.30;;;;;;;6.04;75.40;99008.75;4919603;29;20114;-78
2021/01/21 08:18:18;;;;;;;0.52;0.30;;;;;;;6.10;75.80;99005.50;4933456;29;20044;-77
2021/01/21 08:20:43;;;;;;;2.85;0.52;;;;;;;6.06;76.24;99032.81;4933136;29;20501;-77
2021/01/21 08:23:09;;;;;;;2.25;0.38;;;;;;;6.09;74.99;99048.13;4928773;29;20035;-79
2021/01/21 08:25:35;;;;;;;3.45;0.52;;;;;;;6.13;75.46;99072.06;4908556;29;20066;-77
2021/01/21 08:28:01;;;;;;;1.95;0.40;;;;;;;6.03;73.91;99046.19;4932476;29;20044;-78
2021/01/21 08:30:28;;;;;;;2.88;0.40;;;;;;;6.08;74.38;99050.91;4933904;29;20045;-79
2021/01/21 08:33:13;;;;;;;1.23;0.50;;;;;;;6.03;74.87;99070.41;4921208;29;20040;-80
2021/01/21 08:35:56;;;;;;;2.97;0.50;;;;;;;5.99;74.42;99076.91;4937011;29;20047;-77
2021/01/21 08:38:24;;;;;;;4.05;0.60;;;;;;;5.89;76.00;99070.16;4920965;29;20127;-79
2021/01/21 08:40:51;;;;;;;4.70;0.50;;;;;;;5.87;76.88;99046.91;4944411;29;20027;-77
2021/01/21 08:43:19;;;;;;;3.28;0.43;;;;;;;5.77;76.79;99044.44;4925222;29;20031;-77
2021/01/21 08:45:45;;;;;;;3.22;0.40;;;;;;;5.78;76.81;99085.09;4952198;28;20454;-78
2021/01/21 08:48:25;;;;;;;5.72;0.70;;;;;;;5.71;76.12;99068.47;4939856;29;20035;-78
2021/01/21 08:50:50;;;;;;;3.90;0.50;;;;;;;5.68;77.64;99063.56;4921050;29;20042;-77
2021/01/21 08:53:34;;;;;;;0.98;0.32;;;;;;;5.68;77.30;99070.56;4942562;29;20051;-78
2021/01/21 08:56:00;;;;;;;2.75;0.60;;;;;;;5.66;77.74;99060.31;4902707;29;20036;-76
2021/01/21 08:58:28;;;;;;;3.33;0.60;;;;;;;5.75;78.35;99095.00;4933203;29;20032;-78
2021/01/21 09:00:58;;;;;;;2.05;0.40;;;;;;;5.76;78.40;99115.63;4934027;29;20378;-77
2021/01/21 09:03:32;;;;;;;1.38;0.40;;;;;;;5.82;78.27;99088.19;4920580;29;20048;-78
2021/01/21 09:05:57;;;;;;;4.45;0.63;;;;;;;5.73;78.83;99104.75;4919074;29;20051;-78
2021/01/21 09:08:23;;;;;;;2.58;0.52;;;;;;;5.73;78.46;99097.75;4952225;29;20051;-76
2021/01/21 09:10:49;;;;;;;2.72;0.40;;;;;;;5.80;78.95;99119.59;4931243;29;20039;-79
2021/01/21 09:13:18;;;;;;;1.05;0.40;;;;;;;5.80;78.86;99109.16;4917043;29;20032;-78
2021/01/21 09:15:58;;;;;;;1.48;0.50;;;;;;;5.85;78.91;99108.69;4905310;29;20040;-77
2021/01/21 09:18:45;;;;;;;5.40;0.43;;;;;;;5.92;78.37;99148.75;4920150;29;20036;-79
2021/01/21 09:21:14;;;;;;;0.40;0.30;;;;;;;5.91;77.78;99123.69;4904841;29;20054;-77
2021/01/21 09:23:40;;;;;;;1.67;0.30;;;;;;;6.03;77.71;99156.31;4902161;29;20036;-77
2021/01/21 09:26:13;;;;;;;1.48;0.60;;;;;;;6.06;78.08;99164.78;4912187;29;20044;-78
2021/01/21 09:28:55;;;;;;;;;;;;;;;6.09;77.73;99169.69;4917039;29;20044;-77
2021/01/21 09:31:22;;;;;;;6.10;0.50;;;;;;;6.07;76.56;99154.22;4885467;29;19922;-77
2021/01/21 09:33:52;;;;;;;2.63;0.57;;;;;;;6.18;75.45;99158.31;4885246;29;20521;-77
2021/01/21 09:36:18;;;;;;;3.60;0.85;;;;;;;6.24;74.17;99136.88;4901120;29;20069;-78
2021/01/21 09:38:44;;;;;;;2.63;0.77;;;;;;;6.29;75.04;99126.78;4904337;29;20467;-77
2021/01/21 09:41:10;;;;;;;4.38;0.73;;;;;;;6.29;75.35;99157.22;4953105;28;20046;-78
2021/01/21 09:43:35;;;;;;;5.97;0.88;;;;;;;6.28;75.43;99166.00;4913878;29;20080;-79
2021/01/21 09:46:02;;;;;;;6.65;1.10;;;;;;;6.24;75.25;99155.91;4913478;29;20043;-78
2021/01/21 09:48:27;;;;;;;3.67;0.90;;;;;;;6.24;75.55;99162.91;4901278;29;20131;-78
2021/01/21 09:50:54;;;;;;;4.35;1.15;;;;;;;6.24;75.50;99174.13;4943188;29;20071;-78
2021/01/21 09:53:19;;;;;;;2.95;0.77;;;;;;;6.13;74.99;99168.38;4918616;29;20035;-78
2021/01/21 09:55:45;;;;;;;5.70;0.93;;;;;;;6.27;75.14;99182.59;4955586;29;20050;-76
2021/01/21 09:58:10;;;;;;;3.30;0.70;;;;;;;6.24;75.39;99184.53;4939220;29;20257;-76
2021/01/21 10:00:36;;;;;;;3.33;0.70;;;;;;;6.22;75.23;99190.88;4937028;29;20036;-78
2021/01/21 10:03:02;;;;;;;5.78;0.75;;;;;;;6.18;75.34;99197.38;4917433;29;20040;-78
2021/01/21 10:05:27;;;;;;;1.70;0.68;;;;;;;6.16;74.96;99200.13;4885573;29;20035;-77
2021/01/21 10:07:53;;;;;;;3.80;0.82;;;;;;;6.19;74.86;99207.63;4921754;29;20043;-78
2021/01/21 10:10:19;;;;;;;4.53;0.63;;;;;;;6.17;75.55;99224.38;4953905;29;20035;-78
2021/01/21 10:12:44;;;;;;;2.75;0.73;;;;;;;6.08;74.81;99207.06;4902028;29;20040;-78
2021/01/21 10:15:10;;;;;;;4.18;0.73;;;;;;;6.08;75.08;99222.69;4915965;29;20512;-78
2021/01/21 10:17:36;;;;;;;7.80;0.90;;;;;;;5.99;75.47;99219.22;4885099;29;20044;-78
2021/01/21 10:20:02;;;;;;;2.20;0.70;;;;;;;5.96;75.85;99227.34;4884384;29;20032;-77
2021/01/21 10:22:28;;;;;;;5.65;0.65;;;;;;;5.99;75.68;99220.06;4903743;29;20036;-78
2021/01/21 10:24:53;;;;;;;2.45;1.08;;;;;;;5.98;75.25;99222.81;4911445;29;20035;-77
2021/01/21 10:27:21;;;;;;;7.72;1.00;;;;;;;5.99;74.62;99224.44;4884879;29;20129;-77
2021/01/21 10:29:47;;;;;;;6.05;1.10;;;;;;;6.06;75.29;99230.66;4884552;29;20044;-77
2021/01/21 10:32:13;;;;;;;5.22;1.10;;;;;;;6.22;74.59;99222.94;4887816;29;20052;-77
2021/01/21 10:34:38;;;;;;;4.50;0.75;;;;;;;6.35;73.92;99219.09;4903122;29;20035;-78
2021/01/21 10:37:04;;;;;;;5.32;0.95;;;;;;;6.56;72.95;99224.72;4901587;29;20467;-78
2021/01/21 10:39:30;;;;;;;4.57;0.90;;;;;;;6.64;71.74;99229.13;4900219;29;20040;-78
2021/01/21 10:41:55;;;;;;;3.20;0.70;;;;;;;6.78;71.90;99222.47;4910244;29;20038;-78
2021/01/21 10:44:21;;;;;;;6.15;1.13;;;;;;;6.74;71.34;99208.97;4906890;29;20392;-77
2021/01/21 10:46:46;;;;;;;2.63;0.70;;;;;;;6.93;69.95;99217.47;4907164;29;20032;-77
2021/01/21 10:49:14;;;;;;;4.05;0.90;;;;;;;6.87;70.30;99216.31;4921980;29;20023;-77
2021/01/21 10:51:39;;;;;;;4.68;0.80;;;;;;;6.92;69.39;99214.03;4919326;29;20430;-77
2021/01/21 10:54:05;;;;;;;4.28;0.80;;;;;;;6.95;69.61;99210.28;4945694;28;20043;-77
2021/01/21 10:56:33;;;;;;;4.72;0.95;;;;;;;7.04;68.47;99232.78;4901672;29;20062;-78
2021/01/21 10:59:01;;;;;;;6.15;1.10;;;;;;;7.03;67.40;99210.31;4901057;29;20115;-77
2021/01/21 11:01:29;;;;;;;2.47;0.90;;;;;;;7.20;68.77;99232.81;4883549;29;20422;-77
2021/01/21 11:03:54;;;;;;;3.53;0.80;;;;;;;7.30;68.64;99230.06;4905347;29;20466;-79
2021/01/21 11:06:20;;;;;;;5.55;0.90;;;;;;;7.32;68.54;99229.91;4903456;29;20035;-77
2021/01/21 11:08:45;;;;;;;5.18;1.05;;;;;;;7.39;68.26;99226.47;4935616;29;20027;-78
2021/01/21 11:11:11;;;;;;;2.67;0.80;;;;;;;7.52;67.19;99223.38;4929462;29;20028;-78
2021/01/21 11:13:36;;;;;;;7.63;1.08;;;;;;;7.41;67.23;99215.88;4918301;29;20028;-79
2021/01/21 11:16:02;;;;;;;2.42;0.68;;;;;;;7.19;67.59;99212.13;4915721;29;20102;-76
2021/01/21 11:18:28;;;;;;;7.00;1.20;;;;;;;7.15;68.37;99232.47;4907027;29;20032;-76
2021/01/21 11:20:53;;;;;;;5.82;0.85;;;;;;;7.17;67.66;99229.72;4918433;29;20106;-80
2021/01/21 11:23:19;;;;;;;2.90;0.98;;;;;;;7.15;67.20;99229.06;4904624;29;20378;-79
2021/01/21 11:25:44;;;;;;;3.25;0.73;;;;;;;7.16;66.73;99231.53;4898384;29;20044;-78
2021/01/21 11:28:10;;;;;;;3.45;0.80;;;;;;;7.28;66.71;99234.63;4891383;29;20035;-79
2021/01/21 11:30:35;;;;;;;5.53;0.90;;;;;;;7.13;66.11;99218.00;4907915;29;20043;-80
2021/01/21 11:33:01;;;;;;;2.55;1.00;;;;;;;7.16;66.14;99238.53;4925601;29;20035;-78
2021/01/21 11:35:27;;;;;;;4.28;1.10;;;;;;;7.16;65.95;99226.31;4908744;29;20040;-81
2021/01/21 11:37:53;;;;;;;5.40;1.00;;;;;;;7.20;64.95;99217.19;4901197;29;20119;-81
2021/01/21 11:40:19;;;;;;;2.95;0.80;;;;;;;7.33;66.13;99218.50;4921207;29;20504;-78
2021/01/21 11:42:44;;;;;;;6.97;1.08;;;;;;;7.47;66.06;99228.28;4900024;29;20050;-81
2021/01/21 11:45:12;;;;;;;3.58;1.23;;;;;;;7.43;65.18;99226.97;4919286;29;20078;-79
2021/01/21 11:47:41;;;;;;;3.45;1.00;;;;;;;7.30;64.77;99218.81;4939997;29;20028;-78
2021/01/21 11:50:09;;;;;;;8.55;1.13;;;;;;;7.29;63.92;99217.19;4903739;29;20119;-77
2021/01/21 11:52:34;;;;;;;2.22;0.70;;;;;;;7.41;63.12;99226.31;4915876;29;20032;-80
2021/01/21 11:55:00;;;;;;;6.93;1.17;;;;;;;7.44;63.42;99220.78;4917364;29;20050;-78
2021/01/21 11:57:25;;;;;;;6.20;1.30;;;;;;;7.38;62.09;99221.41;4907971;29;20517;-77